Terminal Aerodrome Forecast
Issued by NWS

Home | Current Version | Previous Version | Text Only | Print | Product List | Glossary On
Versions: 1 2 3 4 5 6 7 8 9 10 11 12
023
FTUS45 KREV 191738
TAFMMH
TAF
KMMH 191738Z 1918/2018 20012G23KT P6SM FEW100 SCT200
     FM192300 22018G32KT P6SM SCT080 BKN150
     FM200600 24026G42KT P6SM SCT050 BKN120
     FM201100 25023G36KT P6SM VCSH BKN060=

USA.gov is the U.S. government's official web portal to all federal, state and local government web resources and services.